createdAt,value
2023-07-02T00:02:07.194Z,218.07
2023-07-02T00:04:34.100Z,224.15
2023-07-02T00:07:01.433Z,216.45
2023-07-02T00:09:28.071Z,226.70
2023-07-02T00:11:54.713Z,210.55
2023-07-02T00:14:22.635Z,203.10
2023-07-02T00:16:49.404Z,198.65
2023-07-02T00:19:16.580Z,221.50
2023-07-02T00:21:43.631Z,245.15
2023-07-02T00:24:10.884Z,202.23
2023-07-02T00:26:39.239Z,226.30
2023-07-02T00:29:07.428Z,220.82
2023-07-02T00:31:34.918Z,224.52
2023-07-02T00:34:02.967Z,223.10
2023-07-02T00:36:32.705Z,224.65
2023-07-02T00:39:00.026Z,228.68
2023-07-02T00:41:27.898Z,305.48
2023-07-02T00:43:57.691Z,212.60
2023-07-02T00:46:26.464Z,223.48
2023-07-02T00:48:54.890Z,224.85
2023-07-02T00:51:24.688Z,233.90
2023-07-02T00:53:54.031Z,240.73
2023-07-02T00:56:21.692Z,211.77
2023-07-02T00:58:51.175Z,230.57
2023-07-02T01:01:26.205Z,215.43
2023-07-02T01:04:01.878Z,240.30
2023-07-02T01:06:33.531Z,217.88
2023-07-02T01:09:02.170Z,211.02
2023-07-02T01:11:37.961Z,219.25
2023-07-02T01:14:10.911Z,194.27
2023-07-02T01:19:08.582Z,191.70
2023-07-02T01:21:35.324Z,214.60
2023-07-02T01:24:02.321Z,196.32
2023-07-02T01:26:35.521Z,210.90
2023-07-02T01:29:18.729Z,191.75
2023-07-02T01:31:46.489Z,221.02
2023-07-02T01:34:14.662Z,195.20
2023-07-02T01:36:42.488Z,220.43
2023-07-02T01:39:09.272Z,192.27
2023-07-02T01:41:44.368Z,229.45
2023-07-02T01:44:11.661Z,182.77
2023-07-02T01:46:38.569Z,205.18
2023-07-02T01:49:05.818Z,190.88
2023-07-02T01:51:32.473Z,214.45
2023-07-02T01:53:59.332Z,194.63
2023-07-02T01:56:26.291Z,198.95
2023-07-02T01:58:52.928Z,201.95
2023-07-02T02:01:19.607Z,198.75
2023-07-02T02:03:46.297Z,213.93
2023-07-02T02:06:12.897Z,201.75
2023-07-02T02:08:39.452Z,245.73
2023-07-02T02:11:06.070Z,207.98
2023-07-02T02:13:32.704Z,212.88
2023-07-02T02:15:59.505Z,197.77
2023-07-02T02:18:26.491Z,212.98
2023-07-02T02:20:53.123Z,210.45
2023-07-02T02:23:19.854Z,206.23
2023-07-02T02:25:46.491Z,223.68
2023-07-02T02:28:13.068Z,209.70
2023-07-02T02:30:39.950Z,225.82
2023-07-02T02:33:06.896Z,221.20
2023-07-02T02:35:33.642Z,212.98
2023-07-02T02:38:03.698Z,200.70
2023-07-02T02:40:30.424Z,204.75
2023-07-02T02:42:57.229Z,198.98
2023-07-02T02:45:24.440Z,205.50
2023-07-02T02:47:51.091Z,216.32
2023-07-02T02:50:17.787Z,249.85
2023-07-02T02:52:44.348Z,201.05
2023-07-02T02:55:13.646Z,242.23
2023-07-02T02:57:40.359Z,196.45
2023-07-02T03:00:08.249Z,231.02
2023-07-02T03:02:35.032Z,203.15
2023-07-02T03:05:03.970Z,201.77
2023-07-02T03:07:31.063Z,202.82
2023-07-02T03:09:57.743Z,200.63
2023-07-02T03:12:27.137Z,227.15
2023-07-02T03:14:56.661Z,201.40
2023-07-02T03:17:23.738Z,214.82
2023-07-02T03:19:50.636Z,195.40
2023-07-02T03:22:17.419Z,211.23
2023-07-02T03:24:44.332Z,207.00
2023-07-02T03:27:11.018Z,215.05
2023-07-02T03:29:39.225Z,195.80
2023-07-02T03:32:06.583Z,210.27
2023-07-02T03:34:33.514Z,193.90
2023-07-02T03:37:00.238Z,199.52
2023-07-02T03:39:27.117Z,204.57
2023-07-02T03:41:54.131Z,197.50
2023-07-02T03:44:21.062Z,203.90
2023-07-02T03:46:47.722Z,190.45
2023-07-02T03:49:14.401Z,311.42
2023-07-02T03:51:41.254Z,206.63
2023-07-02T03:54:08.071Z,209.32
2023-07-02T03:56:34.676Z,202.77
2023-07-02T03:59:01.306Z,211.07
2023-07-02T04:01:27.946Z,216.70
2023-07-02T04:03:56.589Z,206.32
2023-07-02T04:06:23.949Z,211.80
2023-07-02T04:08:50.549Z,203.07
2023-07-02T04:11:17.225Z,217.82
2023-07-02T04:13:44.137Z,201.35
2023-07-02T04:16:10.801Z,246.13
2023-07-02T04:18:37.398Z,198.27
2023-07-02T04:21:04.140Z,213.18
2023-07-02T04:23:30.921Z,198.18
2023-07-02T04:26:16.798Z,197.35
2023-07-02T04:28:44.977Z,200.88
2023-07-02T04:31:11.862Z,221.90
2023-07-02T04:33:38.456Z,212.00
2023-07-02T04:36:05.550Z,214.43
2023-07-02T04:38:32.423Z,225.68
2023-07-02T04:41:02.680Z,201.93
2023-07-02T04:43:32.450Z,228.73
2023-07-02T04:45:59.331Z,207.63
2023-07-02T04:48:25.979Z,214.27
2023-07-02T04:50:52.793Z,210.43
2023-07-02T04:53:19.315Z,210.63
2023-07-02T04:55:46.132Z,238.82
2023-07-02T04:58:12.753Z,210.13
2023-07-02T05:00:39.318Z,263.67
2023-07-02T05:03:05.908Z,218.57
2023-07-02T05:05:32.632Z,236.50
2023-07-02T05:07:59.274Z,222.88
2023-07-02T05:10:26.203Z,271.42
2023-07-02T05:12:52.783Z,222.48
2023-07-02T05:15:19.376Z,261.58
2023-07-02T05:17:46.191Z,227.60
2023-07-02T05:20:13.122Z,257.52
2023-07-02T05:22:39.681Z,281.60
2023-07-02T05:25:06.812Z,250.50
2023-07-02T05:27:33.617Z,251.52
2023-07-02T05:30:00.223Z,238.10
2023-07-02T05:32:27.051Z,247.98
2023-07-02T05:34:53.700Z,235.80
2023-07-02T05:37:20.478Z,248.43
2023-07-02T05:39:47.061Z,229.60
2023-07-02T05:42:13.774Z,238.73
2023-07-02T05:44:40.338Z,271.13
2023-07-02T05:47:07.203Z,255.77
2023-07-02T05:49:33.867Z,305.40
2023-07-02T05:52:00.482Z,256.02
2023-07-02T05:54:27.146Z,283.42
2023-07-02T05:56:53.960Z,262.15
2023-07-02T05:59:20.748Z,278.77
2023-07-02T06:01:47.558Z,265.42
2023-07-02T06:04:14.443Z,275.90
2023-07-02T06:06:41.177Z,277.05
2023-07-02T06:09:07.728Z,261.13
2023-07-02T06:11:34.433Z,287.23
2023-07-02T06:14:01.267Z,267.83
2023-07-02T06:16:27.908Z,295.02
2023-07-02T06:18:54.857Z,274.55
2023-07-02T06:21:22.229Z,287.15
2023-07-02T06:23:49.863Z,261.20
2023-07-02T06:26:16.504Z,263.83
2023-07-02T06:28:43.068Z,291.20
2023-07-02T06:31:09.711Z,276.80
2023-07-02T06:33:39.983Z,319.42
2023-07-02T06:36:06.654Z,275.25
2023-07-02T06:38:33.457Z,292.45
2023-07-02T06:41:00.057Z,285.08
2023-07-02T06:43:26.606Z,283.02
2023-07-02T06:45:53.488Z,289.13
2023-07-02T06:48:22.384Z,281.55
2023-07-02T06:50:49.517Z,271.63
2023-07-02T06:53:16.475Z,291.83
2023-07-02T06:55:43.250Z,294.55
2023-07-02T06:58:09.924Z,292.40
2023-07-02T07:00:36.930Z,302.58
2023-07-02T07:03:04.516Z,323.83
2023-07-02T07:05:34.368Z,284.17
2023-07-02T07:08:04.229Z,279.52
2023-07-02T07:10:35.234Z,325.75
2023-07-02T07:13:03.478Z,274.55
2023-07-02T07:15:35.404Z,295.60
2023-07-02T07:18:02.810Z,280.40
2023-07-02T07:20:30.180Z,296.25
2023-07-02T07:22:56.864Z,295.20
2023-07-02T07:25:23.891Z,361.90
2023-07-02T07:27:50.522Z,276.80
2023-07-02T07:30:23.410Z,308.30
2023-07-02T07:32:54.139Z,295.45
2023-07-02T07:35:23.955Z,289.58
2023-07-02T07:37:50.732Z,321.35
2023-07-02T07:40:17.411Z,336.27
2023-07-02T07:42:44.269Z,325.88
2023-07-02T07:45:12.334Z,339.90
2023-07-02T07:47:40.363Z,314.23
2023-07-02T07:50:11.290Z,313.42
2023-07-02T07:52:41.822Z,299.63
2023-07-02T07:55:08.822Z,337.13
2023-07-02T07:57:37.091Z,297.15
2023-07-02T08:00:13.609Z,297.13
2023-07-02T08:02:47.922Z,357.27
2023-07-02T08:05:14.578Z,341.88
2023-07-02T08:07:41.963Z,327.95
2023-07-02T08:10:11.709Z,355.05
2023-07-02T08:12:38.371Z,318.95
2023-07-02T08:15:05.392Z,323.85
2023-07-02T08:17:32.108Z,315.60
2023-07-02T08:19:59.070Z,313.27
2023-07-02T08:22:25.609Z,299.45
2023-07-02T08:24:52.199Z,301.15
2023-07-02T08:27:20.238Z,351.35
2023-07-02T08:29:49.855Z,297.23
2023-07-02T08:32:16.721Z,315.25
2023-07-02T08:34:43.657Z,312.45
2023-07-02T08:37:10.601Z,316.98
2023-07-02T08:39:40.723Z,372.90
2023-07-02T08:42:08.203Z,311.85
2023-07-02T08:44:35.422Z,336.02
2023-07-02T08:47:02.708Z,329.92
2023-07-02T08:49:29.959Z,362.65
2023-07-02T08:51:56.584Z,324.52
2023-07-02T08:54:23.244Z,334.67
2023-07-02T08:56:50.378Z,332.98
2023-07-02T08:59:16.946Z,348.20
2023-07-02T09:01:51.114Z,319.20
2023-07-02T09:04:21.522Z,367.27
2023-07-02T09:06:50.464Z,324.83
2023-07-02T09:09:17.033Z,351.02
2023-07-02T09:11:53.137Z,344.80
2023-07-02T09:14:31.169Z,368.73
2023-07-02T09:17:09.751Z,343.25
2023-07-02T09:19:37.342Z,334.83
2023-07-02T09:22:04.655Z,343.05
2023-07-02T09:24:32.653Z,361.92
2023-07-02T09:27:01.471Z,370.63
2023-07-02T09:29:30.201Z,410.35
2023-07-02T09:32:09.605Z,418.20
2023-07-02T09:34:43.712Z,395.80
2023-07-02T09:37:10.408Z,389.83
2023-07-02T09:39:37.773Z,372.42
2023-07-02T09:42:07.881Z,363.35
2023-07-02T09:44:35.741Z,342.73
2023-07-02T09:47:10.151Z,324.30
2023-07-02T09:49:40.938Z,305.40
2023-07-02T09:52:08.791Z,345.35
2023-07-02T09:54:36.267Z,349.40
2023-07-02T09:57:03.903Z,311.08
2023-07-02T09:59:31.223Z,374.20
2023-07-02T10:01:58.243Z,326.23
2023-07-02T10:04:25.497Z,342.73
2023-07-02T10:06:56.875Z,369.73
2023-07-02T10:12:20.818Z,383.35
2023-07-02T10:14:48.904Z,373.58
2023-07-02T10:17:33.577Z,368.35
2023-07-02T10:20:02.316Z,332.63
2023-07-02T10:22:30.076Z,353.45
2023-07-02T10:25:02.920Z,323.60
2023-07-02T10:27:39.476Z,331.23
2023-07-02T10:30:07.373Z,323.13
2023-07-02T10:32:35.404Z,321.30
2023-07-02T10:35:05.360Z,294.52
2023-07-02T10:37:38.824Z,320.17
2023-07-02T10:40:07.780Z,310.65
2023-07-02T10:42:35.167Z,334.13
2023-07-02T10:45:01.945Z,323.10
2023-07-02T10:47:29.363Z,424.25
2023-07-02T10:49:56.051Z,362.45
2023-07-02T10:52:22.760Z,416.02
2023-07-02T10:54:49.798Z,424.58
2023-07-02T10:57:21.252Z,478.33
2023-07-02T10:59:48.961Z,539.10
2023-07-02T11:02:16.319Z,548.75
2023-07-02T11:04:43.214Z,563.50
2023-07-02T11:07:11.263Z,563.00
2023-07-02T11:09:37.870Z,565.85
2023-07-02T11:12:04.724Z,534.83
2023-07-02T11:14:32.409Z,602.90
2023-07-02T11:17:00.616Z,548.22
2023-07-02T11:19:27.342Z,560.65
2023-07-02T11:21:58.951Z,637.03
2023-07-02T11:24:36.536Z,635.03
2023-07-02T11:27:05.190Z,650.13
2023-07-02T11:29:32.734Z,606.08
2023-07-02T11:32:06.895Z,610.08
2023-07-02T11:34:33.572Z,642.72
2023-07-02T11:37:00.134Z,654.55
2023-07-02T11:39:26.742Z,606.90
2023-07-02T11:41:53.496Z,575.00
2023-07-02T11:44:20.392Z,533.75
2023-07-02T11:46:48.370Z,507.45
2023-07-02T11:49:15.432Z,481.85
2023-07-02T11:51:47.834Z,515.22
2023-07-02T11:54:14.467Z,508.52
2023-07-02T11:56:43.132Z,574.03
2023-07-02T11:59:10.296Z,594.75
2023-07-02T12:01:37.106Z,666.30
2023-07-02T12:04:04.164Z,675.20
2023-07-02T12:06:30.709Z,735.80
2023-07-02T12:08:57.496Z,753.38
2023-07-02T12:11:24.155Z,698.83
2023-07-02T12:13:50.748Z,809.58
2023-07-02T12:16:17.341Z,803.05
2023-07-02T12:18:44.092Z,819.90
2023-07-02T12:21:10.701Z,796.47
2023-07-02T12:23:37.396Z,760.30
2023-07-02T12:26:04.011Z,829.65
2023-07-02T12:28:30.589Z,817.05
2023-07-02T12:30:57.330Z,828.50
2023-07-02T12:33:24.200Z,753.80
2023-07-02T12:35:50.922Z,758.58
2023-07-02T12:38:17.912Z,714.40
2023-07-02T12:40:44.637Z,718.55
2023-07-02T12:43:11.378Z,734.95
2023-07-02T12:45:38.016Z,680.22
2023-07-02T12:48:05.185Z,642.78
2023-07-02T12:50:31.952Z,576.22
2023-07-02T12:52:58.544Z,592.53
2023-07-02T12:55:25.051Z,620.20
2023-07-02T12:57:51.737Z,696.95
2023-07-02T13:00:18.774Z,720.92
2023-07-02T13:02:58.674Z,726.35
2023-07-02T13:05:29.197Z,703.50
2023-07-02T13:07:55.903Z,664.17
2023-07-02T13:10:23.217Z,653.30
2023-07-02T13:12:49.859Z,609.85
2023-07-02T13:15:16.723Z,653.10
2023-07-02T13:17:44.842Z,649.83
2023-07-02T13:20:11.653Z,693.72
2023-07-02T13:22:38.515Z,724.60
2023-07-02T13:25:05.904Z,745.13
2023-07-02T13:27:32.704Z,749.92
2023-07-02T13:29:59.360Z,750.97
2023-07-02T13:32:26.223Z,782.75
2023-07-02T13:34:52.788Z,785.95
2023-07-02T13:37:19.608Z,860.67
2023-07-02T13:39:47.242Z,819.15
2023-07-02T13:42:13.973Z,811.08
2023-07-02T13:44:40.654Z,821.92
2023-07-02T13:47:07.599Z,763.53
2023-07-02T13:49:34.463Z,753.97
2023-07-02T13:52:01.481Z,698.53
2023-07-02T13:54:28.049Z,688.05
2023-07-02T13:56:54.665Z,693.47
2023-07-02T13:59:21.452Z,691.20
2023-07-02T14:01:48.965Z,689.40
2023-07-02T14:04:17.378Z,677.00
2023-07-02T14:06:44.306Z,670.17
2023-07-02T14:09:11.241Z,646.72
2023-07-02T14:11:40.627Z,651.92
2023-07-02T14:14:07.631Z,620.58
2023-07-02T14:16:34.257Z,619.05
2023-07-02T14:19:00.861Z,581.40
2023-07-02T14:21:27.542Z,635.05
2023-07-02T14:23:54.117Z,588.60
2023-07-02T14:26:20.861Z,593.35
2023-07-02T14:28:47.539Z,560.60
2023-07-02T14:31:14.410Z,592.28
2023-07-02T14:33:41.267Z,592.65
2023-07-02T14:36:08.137Z,581.20
2023-07-02T14:38:35.270Z,679.80
2023-07-02T14:41:03.209Z,619.60
2023-07-02T14:43:31.038Z,600.13
2023-07-02T14:45:59.688Z,556.92
2023-07-02T14:48:26.537Z,574.67
2023-07-02T14:50:58.058Z,551.47
2023-07-02T14:53:26.800Z,590.15
2023-07-02T14:55:56.064Z,608.13
2023-07-02T14:58:22.907Z,613.88
2023-07-02T15:00:54.802Z,622.10
2023-07-02T15:03:23.725Z,596.25
2023-07-02T15:05:51.821Z,605.33
2023-07-02T15:08:19.358Z,597.03
2023-07-02T15:10:51.457Z,597.20
2023-07-02T15:13:19.136Z,578.25
2023-07-02T15:15:47.569Z,604.42
2023-07-02T15:18:14.583Z,581.55
2023-07-02T15:20:42.664Z,570.47
2023-07-02T15:23:09.272Z,557.85
2023-07-02T15:25:36.026Z,564.75
2023-07-02T15:28:02.845Z,598.08
2023-07-02T15:30:29.579Z,588.88
2023-07-02T15:32:57.301Z,622.10
2023-07-02T15:35:23.941Z,600.58
2023-07-02T15:37:50.599Z,636.28
2023-07-02T15:40:17.204Z,625.33
2023-07-02T15:42:43.882Z,599.58
2023-07-02T15:45:11.274Z,605.42
2023-07-02T15:47:37.917Z,574.15
2023-07-02T15:50:05.225Z,538.03
2023-07-02T15:52:31.854Z,527.30
2023-07-02T15:54:58.472Z,506.63
2023-07-02T15:57:25.443Z,468.23
2023-07-02T15:59:52.494Z,462.23
2023-07-02T16:02:19.089Z,438.42
2023-07-02T16:04:46.236Z,454.60
2023-07-02T16:07:14.447Z,435.98
2023-07-02T16:09:41.289Z,424.35
2023-07-02T16:12:08.907Z,430.98
2023-07-02T16:14:36.027Z,416.38
2023-07-02T16:17:02.773Z,430.70
2023-07-02T16:19:29.438Z,411.05
2023-07-02T16:21:56.357Z,402.58
2023-07-02T16:24:28.472Z,406.27
2023-07-02T16:26:57.322Z,390.67
2023-07-02T16:29:27.722Z,425.60
2023-07-02T16:31:56.881Z,397.73
2023-07-02T16:34:24.518Z,399.23
2023-07-02T16:36:51.817Z,383.73
2023-07-02T16:39:19.607Z,418.02
2023-07-02T16:41:47.447Z,392.63
2023-07-02T16:44:19.920Z,503.98
2023-07-02T16:46:47.673Z,376.88
2023-07-02T16:49:16.013Z,401.75
2023-07-02T16:51:45.707Z,374.77
2023-07-02T16:54:17.905Z,438.77
2023-07-02T16:56:49.414Z,358.73
2023-07-02T16:59:17.483Z,376.70
2023-07-02T17:01:56.352Z,377.23
2023-07-02T17:04:24.382Z,391.67
2023-07-02T17:06:53.194Z,373.70
2023-07-02T17:09:41.540Z,407.13
2023-07-02T17:12:15.017Z,396.13
2023-07-02T17:14:44.688Z,353.83
2023-07-02T17:17:13.720Z,372.73
2023-07-02T17:19:49.537Z,357.48
2023-07-02T17:22:19.130Z,376.83
2023-07-02T17:24:52.314Z,362.48
2023-07-02T17:27:21.244Z,364.27
2023-07-02T17:29:52.468Z,362.30
2023-07-02T17:34:46.345Z,331.88
2023-07-02T17:37:17.829Z,354.88
2023-07-02T17:39:45.520Z,334.27
2023-07-02T17:42:12.546Z,387.02
2023-07-02T17:44:40.897Z,355.17
2023-07-02T17:47:13.098Z,427.08
2023-07-02T17:49:42.510Z,361.05
2023-07-02T17:52:11.019Z,367.35
2023-07-02T17:54:59.369Z,371.25
2023-07-02T17:57:26.525Z,378.95
2023-07-02T17:59:56.543Z,358.40
2023-07-02T18:02:23.672Z,386.45
2023-07-02T18:04:50.624Z,346.73
2023-07-02T18:07:20.200Z,365.88
2023-07-02T18:09:49.101Z,344.25
2023-07-02T18:12:19.382Z,361.65
2023-07-02T18:14:46.398Z,325.98
2023-07-02T18:17:14.064Z,359.02
2023-07-02T18:19:40.717Z,340.27
2023-07-02T18:22:07.743Z,345.52
2023-07-02T18:24:36.841Z,338.58
2023-07-02T18:27:04.635Z,345.08
2023-07-02T18:29:33.368Z,329.90
2023-07-02T18:32:04.357Z,333.65
2023-07-02T18:34:31.855Z,325.67
2023-07-02T18:37:02.022Z,334.65
2023-07-02T18:39:35.316Z,329.25
2023-07-02T18:42:04.197Z,331.13
2023-07-02T18:44:35.075Z,364.02
2023-07-02T18:47:04.538Z,334.83
2023-07-02T18:49:35.607Z,344.60
2023-07-02T18:54:38.984Z,335.13
2023-07-02T18:57:08.412Z,321.40
2023-07-02T18:59:35.068Z,372.60
2023-07-02T19:02:03.938Z,326.15
2023-07-02T19:04:31.456Z,332.35
2023-07-02T19:06:59.045Z,325.83
2023-07-02T19:09:26.112Z,326.75
2023-07-02T19:11:52.773Z,318.77
2023-07-02T19:14:19.654Z,315.05
2023-07-02T19:16:46.813Z,317.20
2023-07-02T19:19:13.852Z,303.73
2023-07-02T19:21:40.974Z,337.25
2023-07-02T19:24:07.620Z,310.10
2023-07-02T19:26:34.675Z,346.40
2023-07-02T19:29:01.492Z,318.80
2023-07-02T19:31:28.223Z,305.75
2023-07-02T19:33:55.151Z,315.67
2023-07-02T19:36:21.776Z,319.25
2023-07-02T19:38:48.519Z,306.45
2023-07-02T19:41:15.111Z,314.35
2023-07-02T19:43:41.766Z,313.70
2023-07-02T19:46:08.387Z,361.67
2023-07-02T19:48:35.198Z,300.92
2023-07-02T19:51:03.595Z,301.50
2023-07-02T19:53:30.966Z,305.08
2023-07-02T19:55:58.850Z,302.02
2023-07-02T19:58:25.790Z,307.90
2023-07-02T20:00:52.426Z,284.20
2023-07-02T20:03:19.278Z,295.15
2023-07-02T20:05:46.761Z,286.80
2023-07-02T20:08:13.584Z,287.17
2023-07-02T20:10:40.142Z,318.23
2023-07-02T20:13:06.811Z,272.98
2023-07-02T20:15:33.521Z,427.75
2023-07-02T20:18:00.497Z,322.50
2023-07-02T20:20:27.476Z,287.13
2023-07-02T20:22:54.137Z,291.17
2023-07-02T20:25:48.432Z,317.25
2023-07-02T20:28:07.707Z,349.42
2023-07-02T20:30:34.347Z,288.42
2023-07-02T20:33:01.459Z,292.17
2023-07-02T20:35:28.325Z,285.63
2023-07-02T20:37:56.494Z,284.88
2023-07-02T20:40:23.962Z,279.20
2023-07-02T20:42:58.226Z,423.27
2023-07-02T20:45:25.000Z,290.38
2023-07-02T20:47:52.904Z,274.10
2023-07-02T20:50:19.756Z,339.48
2023-07-02T20:52:47.417Z,277.13
2023-07-02T20:55:14.658Z,352.33
2023-07-02T20:57:41.272Z,276.92
2023-07-02T21:00:12.600Z,312.83
2023-07-02T21:02:40.914Z,262.48
2023-07-02T21:05:09.074Z,309.63
2023-07-02T21:07:36.295Z,279.38
2023-07-02T21:10:03.971Z,291.15
2023-07-02T21:12:30.746Z,257.67
2023-07-02T21:14:57.526Z,263.67
2023-07-02T21:17:24.385Z,274.95
2023-07-02T21:19:51.811Z,263.88
2023-07-02T21:22:18.543Z,274.40
2023-07-02T21:24:49.162Z,255.10
2023-07-02T21:27:15.729Z,267.38
2023-07-02T21:29:42.458Z,249.18
2023-07-02T21:32:09.573Z,266.92
2023-07-02T21:34:36.932Z,249.82
2023-07-02T21:37:03.999Z,253.27
2023-07-02T21:39:30.664Z,243.52
2023-07-02T21:41:57.304Z,261.70
2023-07-02T21:44:24.226Z,237.88
2023-07-02T21:46:53.275Z,236.20
2023-07-02T21:49:20.104Z,277.00
2023-07-02T21:51:46.787Z,236.23
2023-07-02T21:54:13.491Z,232.43
2023-07-02T21:56:40.067Z,245.82
2023-07-02T21:59:06.725Z,227.60
2023-07-02T22:01:33.488Z,251.82
2023-07-02T22:04:01.189Z,243.05
2023-07-02T22:06:28.230Z,289.33
2023-07-02T22:08:54.843Z,226.70
2023-07-02T22:11:23.868Z,236.07
2023-07-02T22:13:52.645Z,232.50
2023-07-02T22:16:19.263Z,221.30
2023-07-02T22:18:45.916Z,221.82
2023-07-02T22:21:13.072Z,217.27
2023-07-02T22:23:39.823Z,234.23
2023-07-02T22:26:06.800Z,225.07
2023-07-02T22:28:33.434Z,229.15
2023-07-02T22:31:02.979Z,235.43
2023-07-02T22:33:29.565Z,233.70
2023-07-02T22:35:56.205Z,217.00
2023-07-02T22:38:23.066Z,248.70
2023-07-02T22:40:49.794Z,226.90
2023-07-02T22:43:16.502Z,215.63
2023-07-02T22:45:43.266Z,229.05
2023-07-02T22:48:10.045Z,216.05
2023-07-02T22:50:38.173Z,236.10
2023-07-02T22:53:04.927Z,220.45
2023-07-02T22:55:31.541Z,240.73
2023-07-02T22:57:59.078Z,212.70
2023-07-02T23:00:26.089Z,212.75
2023-07-02T23:02:53.215Z,208.60
2023-07-02T23:05:21.503Z,257.80
2023-07-02T23:07:48.235Z,201.05
2023-07-02T23:10:17.430Z,235.98
2023-07-02T23:12:47.088Z,198.05
2023-07-02T23:15:15.275Z,246.40
2023-07-02T23:17:46.390Z,205.95
2023-07-02T23:20:15.381Z,234.52
2023-07-02T23:22:43.916Z,191.98
2023-07-02T23:25:12.701Z,230.73
2023-07-02T23:27:41.051Z,192.88
2023-07-02T23:30:12.323Z,218.40
2023-07-02T23:35:07.841Z,213.20
2023-07-02T23:37:37.854Z,198.57
2023-07-02T23:40:13.894Z,197.68
2023-07-02T23:42:40.837Z,201.45
2023-07-02T23:45:09.793Z,234.15
2023-07-02T23:47:36.669Z,204.70
2023-07-02T23:50:04.050Z,192.95
2023-07-02T23:52:31.200Z,213.85
2023-07-02T23:54:57.764Z,190.13
2023-07-02T23:57:24.371Z,207.95
2023-07-02T23:59:51.032Z,194.90
